Time;durP1;ratioP1;P1;durP2;ratioP2;P2;SDS_P1;SDS_P2;PMS_P1;PMS_P2;Temp;Humidity;BMP_temperature;BMP_pressure;BME280_temperature;BME280_humidity;BME280_pressure;Samples;Min_cycle;Max_cycle;Signal;HPM_P1;HPM_P2
2022/10/25 00:01:49;;;;;;;2.30;0.60;;;10.80;99.90;;;;;;4992602;28;20031;-78
2022/10/25 00:04:15;;;;;;;0.93;0.63;;;10.70;99.90;;;;;;4991736;28;20022;-77
2022/10/25 00:06:41;;;;;;;0.85;0.52;;;10.60;99.90;;;;;;4992006;28;20141;-77
2022/10/25 00:09:07;;;;;;;0.38;0.38;;;10.50;99.90;;;;;;4993334;28;20167;-77
2022/10/25 00:11:33;;;;;;;1.35;1.00;;;10.40;99.90;;;;;;4993610;28;20586;-76
2022/10/25 00:14:03;;;;;;;1.17;0.80;;;10.30;99.90;;;;;;4993428;28;20026;-77
2022/10/25 00:16:31;;;;;;;0.93;0.82;;;10.20;99.90;;;;;;4992932;28;20027;-77
2022/10/25 00:18:57;;;;;;;0.53;0.50;;;10.20;99.90;;;;;;4993316;28;20027;-77
2022/10/25 00:21:25;;;;;;;1.27;1.13;;;10.30;99.90;;;;;;4993105;28;20092;-77
2022/10/25 00:23:51;;;;;;;2.88;1.33;;;10.20;99.90;;;;;;4991831;28;20545;-77
2022/10/25 00:26:18;;;;;;;0.93;0.57;;;10.20;99.90;;;;;;4992981;28;20533;-76
2022/10/25 00:28:44;;;;;;;1.08;0.88;;;10.10;99.90;;;;;;4993324;28;20315;-77
2022/10/25 00:31:12;;;;;;;3.83;0.50;;;10.10;99.90;;;;;;4992940;28;20301;-77
2022/10/25 00:33:40;;;;;;;1.00;0.68;;;10.00;99.90;;;;;;4993225;28;20057;-77
2022/10/25 00:36:10;;;;;;;0.80;0.80;;;10.00;99.90;;;;;;4993878;28;20022;-78
2022/10/25 00:38:37;;;;;;;1.30;0.90;;;9.90;99.90;;;;;;4997872;28;20018;-79
2022/10/25 00:41:03;;;;;;;1.88;1.15;;;9.90;99.90;;;;;;5000668;28;20022;-78
2022/10/25 00:43:40;;;;;;;1.17;0.90;;;9.90;99.90;;;;;;4999704;28;20053;-78
2022/10/25 00:46:10;;;;;;;0.80;0.80;;;9.90;99.90;;;;;;4998265;28;20030;-78
2022/10/25 00:48:36;;;;;;;0.90;0.50;;;9.80;99.90;;;;;;4996665;28;20126;-77
2022/10/25 00:51:03;;;;;;;2.28;0.65;;;9.70;99.90;;;;;;4992817;28;20110;-78
2022/10/25 00:53:34;;;;;;;0.70;0.70;;;9.70;99.90;;;;;;4992978;28;20029;-77
2022/10/25 00:56:17;;;;;;;0.55;0.55;;;9.70;99.90;;;;;;4992746;28;20017;-77
2022/10/25 00:58:47;;;;;;;1.33;0.80;;;9.70;99.90;;;;;;4991261;28;20514;-76
2022/10/25 01:01:16;;;;;;;0.82;0.70;;;9.60;99.90;;;;;;4991984;28;20026;-77
2022/10/25 01:03:46;;;;;;;7.60;0.75;;;9.60;99.90;;;;;;4992471;28;20025;-77
2022/10/25 01:06:21;;;;;;;;;;;9.50;99.90;;;;;;4991471;28;20093;-77
2022/10/25 01:08:49;;;;;;;0.50;0.50;;;9.50;99.90;;;;;;4990735;28;19913;-77
2022/10/25 01:11:14;;;;;;;0.32;0.32;;;9.40;99.90;;;;;;4990886;28;20054;-78
2022/10/25 01:13:40;;;;;;;0.73;0.50;;;9.40;99.90;;;;;;4989358;28;20070;-77
2022/10/25 01:16:18;;;;;;;0.30;0.30;;;9.40;99.90;;;;;;4990317;28;20054;-77
2022/10/25 01:19:08;;;;;;;0.32;0.32;;;9.30;99.90;;;;;;4990488;28;20035;-77
2022/10/25 01:21:55;;;;;;;10.45;1.10;;;9.30;99.90;;;;;;4988823;28;20121;-76
2022/10/25 01:24:51;;;;;;;0.70;0.70;;;9.20;99.90;;;;;;4990514;28;20026;-77
2022/10/25 01:27:35;;;;;;;1.35;1.10;;;9.10;99.90;;;;;;4989177;28;20028;-77
2022/10/25 01:30:24;;;;;;;0.50;0.50;;;10.20;99.90;;;;;;4990322;28;20069;-77
2022/10/25 01:32:53;;;;;;;1.55;0.68;;;9.10;99.90;;;;;;4989700;28;20394;-77
2022/10/25 01:35:40;;;;;;;0.65;0.65;;;9.00;99.90;;;;;;4988956;28;20023;-77
2022/10/25 01:38:13;;;;;;;1.13;0.70;;;9.00;99.90;;;;;;4989674;28;20030;-77
2022/10/25 01:41:06;;;;;;;1.60;0.35;;;9.00;99.90;;;;;;4990333;28;20041;-77
2022/10/25 01:44:14;;;;;;;0.75;0.40;;;8.90;99.90;;;;;;4991459;28;20030;-77
2022/10/25 01:46:49;;;;;;;0.88;0.68;;;8.80;99.90;;;;;;4990087;28;20471;-78
2022/10/25 01:49:24;;;;;;;0.45;0.45;;;8.80;99.90;;;;;;4991374;28;20026;-77
2022/10/25 01:51:50;;;;;;;2.35;0.50;;;8.90;99.90;;;;;;4991263;28;20038;-77
2022/10/25 01:54:22;;;;;;;6.35;0.70;;;8.80;99.90;;;;;;4989949;28;20026;-77
2022/10/25 01:56:59;;;;;;;0.75;0.55;;;8.70;99.90;;;;;;4991129;28;20077;-77
2022/10/25 01:59:46;;;;;;;0.60;0.60;;;8.70;99.90;;;;;;4989875;28;20027;-77
2022/10/25 02:02:40;;;;;;;5.65;0.60;;;8.60;99.90;;;;;;4991024;28;20030;-76
2022/10/25 02:05:27;;;;;;;0.60;0.60;;;8.60;99.90;;;;;;4984259;28;20481;-77
2022/10/25 02:08:08;;;;;;;5.63;1.92;;;8.50;99.90;;;;;;4991177;28;20333;-77
2022/10/25 02:10:48;;;;;;;0.80;0.70;;;8.50;99.90;;;;;;4991282;28;20037;-77
2022/10/25 02:13:43;;;;;;;0.30;0.30;;;8.40;99.90;;;;;;4989873;28;20188;-77
2022/10/25 02:16:17;;;;;;;2.30;0.50;;;8.40;99.90;;;;;;4972838;28;20495;-76
2022/10/25 02:18:47;;;;;;;2.08;1.65;;;8.40;99.90;;;;;;4990824;28;20041;-77
2022/10/25 02:21:16;;;;;;;0.50;0.50;;;8.40;99.90;;;;;;4990845;28;20050;-77
2022/10/25 02:23:42;;;;;;;0.47;0.40;;;8.40;99.90;;;;;;4989747;28;20030;-77
2022/10/25 02:26:09;;;;;;;0.60;0.47;;;8.40;99.90;;;;;;4990879;28;20026;-76
2022/10/25 02:28:39;;;;;;;0.82;0.77;;;8.30;99.90;;;;;;4990908;28;20395;-77
2022/10/25 02:31:11;;;;;;;0.30;0.30;;;8.20;99.90;;;;;;4991035;28;20129;-77
2022/10/25 02:33:37;;;;;;;1.15;1.00;;;8.20;99.90;;;;;;4991398;28;20061;-76
2022/10/25 02:36:17;;;;;;;4.25;2.00;;;8.20;99.90;;;;;;4991040;28;20050;-76
2022/10/25 02:38:44;;;;;;;1.42;0.50;;;8.10;99.90;;;;;;4990922;28;20027;-76
2022/10/25 02:41:10;;;;;;;1.02;0.57;;;8.00;99.90;;;;;;4990625;28;20089;-76
2022/10/25 02:43:36;;;;;;;0.73;0.73;;;8.00;99.90;;;;;;5005764;28;20041;-78
2022/10/25 02:46:07;;;;;;;2.65;0.47;;;8.00;99.90;;;;;;4989077;28;20433;-77
2022/10/25 02:48:33;;;;;;;1.35;1.25;;;7.90;99.90;;;;;;4989493;28;20045;-77
2022/10/25 02:50:58;;;;;;;0.40;0.30;;;7.90;99.90;;;;;;4989513;28;20467;-77
2022/10/25 02:53:24;;;;;;;0.50;0.50;;;7.80;99.90;;;;;;4989282;28;20092;-77
2022/10/25 02:56:06;;;;;;;2.15;0.55;;;7.90;99.90;;;;;;4989282;28;20050;-77
2022/10/25 02:58:34;;;;;;;0.40;0.40;;;8.00;99.90;;;;;;4990854;28;20085;-77
2022/10/25 03:01:00;;;;;;;0.70;0.70;;;8.00;99.90;;;;;;4987403;28;20357;-76
2022/10/25 03:03:27;;;;;;;1.92;1.02;;;8.00;99.90;;;;;;4986047;28;20043;-78
2022/10/25 03:05:54;;;;;;;1.00;0.90;;;7.90;99.90;;;;;;4971016;28;20046;-77
2022/10/25 03:08:20;;;;;;;0.20;0.20;;;7.90;99.90;;;;;;4972291;28;20027;-77
2022/10/25 03:10:45;;;;;;;0.75;0.52;;;7.80;99.90;;;;;;4973663;28;20384;-76
2022/10/25 03:13:11;;;;;;;2.05;0.50;;;7.80;99.90;;;;;;4975125;28;20039;-77
2022/10/25 03:15:37;;;;;;;0.80;0.43;;;7.80;99.90;;;;;;4974772;28;20399;-76
2022/10/25 03:18:02;;;;;;;0.40;0.40;;;7.80;99.90;;;;;;4974291;28;20078;-77
2022/10/25 03:20:28;;;;;;;0.38;0.38;;;;;;;;;;4973259;28;20026;-76
2022/10/25 03:22:54;;;;;;;0.30;0.30;;;7.70;99.90;;;;;;4974934;28;20134;-78
2022/10/25 03:25:20;;;;;;;0.82;0.30;;;7.80;99.90;;;;;;4974533;28;20575;-77
2022/10/25 03:27:45;;;;;;;1.85;0.63;;;7.70;99.90;;;;;;4974675;28;20072;-77
2022/10/25 03:30:12;;;;;;;0.60;0.52;;;7.70;99.90;;;;;;4974640;28;20023;-77
2022/10/25 03:32:38;;;;;;;0.73;0.73;;;7.60;99.90;;;;;;4973077;28;20039;-77
2022/10/25 03:35:04;;;;;;;6.78;2.10;;;7.60;99.90;;;;;;4974882;28;20023;-77
2022/10/25 03:37:30;;;;;;;0.30;0.30;;;7.50;99.90;;;;;;4974142;28;20027;-77
2022/10/25 03:39:55;;;;;;;0.30;0.30;;;7.50;99.90;;;;;;4974214;28;20022;-77
2022/10/25 03:42:21;;;;;;;1.75;0.50;;;7.40;99.90;;;;;;4973084;28;20058;-77
2022/10/25 03:44:47;;;;;;;0.38;0.35;;;7.40;99.90;;;;;;4974466;28;20531;-77
2022/10/25 03:47:12;;;;;;;0.40;0.30;;;7.30;99.90;;;;;;4974179;28;20026;-77
2022/10/25 03:49:38;;;;;;;0.40;0.40;;;7.30;99.90;;;;;;4974257;28;20027;-77
2022/10/25 03:52:06;;;;;;;0.60;0.57;;;7.40;99.90;;;;;;4974110;28;20051;-77
2022/10/25 03:54:32;;;;;;;1.45;0.55;;;7.30;99.90;;;;;;4972563;28;20074;-77
2022/10/25 03:56:58;;;;;;;0.40;0.40;;;7.40;99.90;;;;;;4973836;28;20026;-77
2022/10/25 03:59:23;;;;;;;0.40;0.40;;;7.30;99.90;;;;;;4972964;28;20019;-78
2022/10/25 04:01:49;;;;;;;0.65;0.50;;;7.30;99.90;;;;;;4973847;28;20039;-76
2022/10/25 04:04:15;;;;;;;0.10;0.10;;;7.20;99.90;;;;;;4974156;28;20415;-77
2022/10/25 04:06:40;;;;;;;0.30;0.30;;;7.20;99.90;;;;;;4973974;28;20031;-77
2022/10/25 04:09:06;;;;;;;0.15;0.15;;;7.20;99.90;;;;;;4972778;28;20019;-77
2022/10/25 04:11:32;;;;;;;0.68;0.30;;;7.20;99.90;;;;;;4974140;28;20031;-77
2022/10/25 04:13:58;;;;;;;0.43;0.25;;;7.10;99.90;;;;;;4974050;28;20113;-77
2022/10/25 04:16:25;;;;;;;0.20;0.20;;;7.10;99.90;;;;;;4973639;28;20109;-78
2022/10/25 04:18:54;;;;;;;1.45;0.30;;;7.10;99.90;;;;;;4971997;28;20030;-77
2022/10/25 04:21:20;;;;;;;1.23;0.50;;;7.10;99.90;;;;;;4972755;28;20058;-77
2022/10/25 04:23:46;;;;;;;0.38;0.38;;;7.10;99.90;;;;;;4972319;28;20030;-77
2022/10/25 04:26:17;;;;;;;1.23;0.50;;;7.10;99.90;;;;;;4973646;28;20055;-77
2022/10/25 04:28:44;;;;;;;0.32;0.32;;;7.00;99.90;;;;;;4972405;28;20065;-77
2022/10/25 04:31:10;;;;;;;1.48;0.63;;;7.00;99.90;;;;;;4971885;28;20118;-77
2022/10/25 04:33:35;;;;;;;2.63;0.40;;;7.00;99.90;;;;;;4973425;28;20102;-78
2022/10/25 04:36:01;;;;;;;1.85;0.50;;;6.90;99.90;;;;;;4973905;28;20077;-77
2022/10/25 04:38:26;;;;;;;0.30;0.30;;;6.90;99.90;;;;;;4971980;28;20427;-77
2022/10/25 04:40:56;;;;;;;0.38;0.38;;;6.90;99.90;;;;;;4972162;28;20039;-77
2022/10/25 04:43:23;;;;;;;3.00;0.50;;;6.90;99.90;;;;;;4973454;28;20026;-77
2022/10/25 04:45:49;;;;;;;0.28;0.28;;;6.80;99.90;;;;;;4973211;28;20081;-77
2022/10/25 04:48:15;;;;;;;1.05;0.95;;;6.80;99.90;;;;;;4973391;28;20507;-77
2022/10/25 04:50:41;;;;;;;0.22;0.22;;;6.80;99.90;;;;;;4973242;28;20025;-78
2022/10/25 04:53:06;;;;;;;1.55;0.47;;;6.80;99.90;;;;;;4972005;28;20439;-77
2022/10/25 04:55:33;;;;;;;0.47;0.40;;;6.90;99.90;;;;;;4973156;28;20027;-77
2022/10/25 04:57:58;;;;;;;0.47;0.38;;;6.90;99.90;;;;;;4971608;28;20033;-77
2022/10/25 05:00:25;;;;;;;1.08;0.50;;;6.90;99.90;;;;;;4972962;28;20027;-77
2022/10/25 05:02:51;;;;;;;0.90;0.80;;;6.90;99.90;;;;;;4972656;28;20387;-77
2022/10/25 05:05:18;;;;;;;0.40;0.40;;;6.90;99.90;;;;;;4973127;28;20019;-76
2022/10/25 05:07:44;;;;;;;0.30;0.30;;;;;;;;;;4973338;28;20042;-77
2022/10/25 05:10:10;;;;;;;0.28;0.22;;;;;;;;;;4973738;28;20029;-76
2022/10/25 05:12:36;;;;;;;0.40;0.40;;;6.80;99.90;;;;;;4974955;28;20129;-76
2022/10/25 05:15:02;;;;;;;0.88;0.88;;;6.80;99.90;;;;;;4972805;28;20022;-77
2022/10/25 05:17:27;;;;;;;0.80;0.52;;;6.80;99.90;;;;;;4971117;28;20030;-77
2022/10/25 05:19:53;;;;;;;0.68;0.68;;;6.80;99.90;;;;;;4971378;28;20026;-77
2022/10/25 05:22:19;;;;;;;1.05;0.80;;;6.80;99.90;;;;;;4970986;28;20058;-77
2022/10/25 05:24:44;;;;;;;0.52;0.32;;;6.90;99.90;;;;;;4971512;28;20034;-77
2022/10/25 05:27:10;;;;;;;0.70;0.45;;;6.90;99.90;;;;;;4971319;28;20125;-77
2022/10/25 05:29:36;;;;;;;1.15;0.63;;;7.00;99.90;;;;;;4972552;28;20034;-77
2022/10/25 05:32:01;;;;;;;1.25;0.50;;;7.10;99.90;;;;;;4971950;28;20480;-77
2022/10/25 05:34:28;;;;;;;3.63;0.50;;;7.10;99.90;;;;;;4972266;28;20019;-77
2022/10/25 05:36:53;;;;;;;1.27;0.80;;;7.10;99.90;;;;;;4972168;28;20126;-77
2022/10/25 05:39:19;;;;;;;2.20;0.70;;;7.40;99.90;;;;;;4972266;28;20094;-77
2022/10/25 05:41:45;;;;;;;0.75;0.47;;;7.30;99.90;;;;;;4970844;28;20423;-77
2022/10/25 05:44:11;;;;;;;0.63;0.60;;;;;;;;;;4972223;28;20023;-77
2022/10/25 05:46:36;;;;;;;0.43;0.40;;;7.40;99.90;;;;;;4970601;28;20033;-77
2022/10/25 05:49:03;;;;;;;0.63;0.40;;;7.40;99.90;;;;;;4972677;28;20023;-77
2022/10/25 05:51:30;;;;;;;0.63;0.50;;;7.60;99.90;;;;;;4972057;28;20373;-76
2022/10/25 05:53:59;;;;;;;0.47;0.47;;;7.50;99.90;;;;;;4971716;28;20046;-77
2022/10/25 05:56:27;;;;;;;3.33;2.03;;;7.60;99.90;;;;;;4972111;28;20158;-77
2022/10/25 05:58:55;;;;;;;2.05;1.10;;;7.60;99.90;;;;;;4970377;28;20391;-77
2022/10/25 06:01:22;;;;;;;1.35;0.90;;;7.70;99.90;;;;;;4971655;28;20015;-77
2022/10/25 06:03:49;;;;;;;1.77;1.67;;;7.80;99.90;;;;;;4970919;28;20026;-76
2022/10/25 06:06:14;;;;;;;1.73;1.38;;;7.80;99.90;;;;;;4972116;28;20589;-77
2022/10/25 06:08:40;;;;;;;9.55;6.53;;;7.80;99.90;;;;;;4970386;28;20558;-77
2022/10/25 06:11:15;;;;;;;6.15;1.02;;;7.80;99.90;;;;;;4971855;28;20030;-77
2022/10/25 06:13:41;;;;;;;0.60;0.50;;;7.80;99.90;;;;;;4971845;28;20038;-77
2022/10/25 06:16:13;;;;;;;22.17;11.18;;;7.80;99.90;;;;;;4970047;28;20026;-77
2022/10/25 06:18:39;;;;;;;6.75;4.20;;;;;;;;;;4970304;28;20038;-77
2022/10/25 06:21:07;;;;;;;5.72;3.10;;;7.80;99.90;;;;;;4970220;28;20074;-77
2022/10/25 06:23:35;;;;;;;8.45;5.40;;;8.00;99.90;;;;;;4971593;28;20046;-77
2022/10/25 06:26:05;;;;;;;9.02;4.82;;;8.10;99.90;;;;;;4982452;28;20076;-77
2022/10/25 06:28:32;;;;;;;8.20;4.55;;;8.10;99.90;;;;;;4991246;28;20345;-76
2022/10/25 06:31:17;;;;;;;11.45;4.80;;;8.20;99.90;;;;;;4989159;28;20077;-77
2022/10/25 06:33:43;;;;;;;19.33;11.13;;;8.20;99.90;;;;;;4989401;28;20420;-78
2022/10/25 06:36:15;;;;;;;7.35;3.50;;;8.40;99.90;;;;;;4991327;28;20026;-77
2022/10/25 06:38:42;;;;;;;6.18;3.35;;;8.40;99.90;;;;;;4996597;28;20035;-77
2022/10/25 06:41:12;;;;;;;16.83;9.45;;;8.50;99.90;;;;;;4986289;28;20018;-77
2022/10/25 06:43:38;;;;;;;6.05;3.17;;;8.60;99.90;;;;;;4969100;28;20034;-77
2022/10/25 06:46:10;;;;;;;3.45;2.15;;;8.70;99.90;;;;;;4969243;28;20109;-77
2022/10/25 06:48:36;;;;;;;3.25;1.70;;;8.80;99.90;;;;;;4970125;28;20027;-77
2022/10/25 06:51:11;;;;;;;4.50;2.97;;;8.90;99.90;;;;;;4969939;28;20023;-77
2022/10/25 06:53:37;;;;;;;6.10;2.88;;;9.10;99.90;;;;;;4980850;28;20034;-76
2022/10/25 06:56:05;;;;;;;4.65;3.42;;;9.20;99.90;;;;;;4989668;28;20026;-78
2022/10/25 06:58:32;;;;;;;4.53;2.83;;;9.40;99.90;;;;;;4980498;28;20033;-77
2022/10/25 07:01:01;;;;;;;13.98;3.38;;;9.60;99.90;;;;;;4989122;28;20023;-77
2022/10/25 07:03:30;;;;;;;5.68;2.65;;;9.70;99.90;;;;;;4983319;28;20108;-76
2022/10/25 07:06:08;;;;;;;5.93;3.00;;;9.90;99.90;;;;;;5004187;28;20045;-76
2022/10/25 07:08:39;;;;;;;4.43;3.38;;;10.00;99.90;;;;;;4991395;28;20307;-77
2022/10/25 07:11:05;;;;;;;16.35;5.88;;;10.20;99.90;;;;;;4990460;28;20149;-77
2022/10/25 07:13:32;;;;;;;7.82;4.97;;;10.30;99.90;;;;;;4984897;28;20033;-77
2022/10/25 07:16:06;;;;;;;4.68;3.33;;;10.40;99.90;;;;;;5003966;28;20124;-78
2022/10/25 07:18:33;;;;;;;34.78;8.25;;;10.50;99.90;;;;;;4986245;28;20180;-77
2022/10/25 07:20:59;;;;;;;5.80;3.78;;;10.60;99.90;;;;;;4990276;28;20035;-78
2022/10/25 07:23:26;;;;;;;3.97;2.90;;;10.60;99.90;;;;;;4988701;28;20035;-77
2022/10/25 07:25:51;;;;;;;7.13;3.38;;;10.70;99.90;;;;;;4995208;28;20396;-77
2022/10/25 07:28:17;;;;;;;9.05;5.10;;;10.90;99.90;;;;;;5000439;28;20030;-77
2022/10/25 07:30:45;;;;;;;11.35;5.53;;;11.00;99.90;;;;;;5000020;28;20023;-78
2022/10/25 07:33:11;;;;;;;10.35;4.20;;;11.00;99.90;;;;;;5000340;28;20208;-79
2022/10/25 07:35:37;;;;;;;10.90;6.45;;;11.10;99.90;;;;;;5000534;28;20026;-77
2022/10/25 07:38:03;;;;;;;9.50;3.63;;;11.10;99.90;;;;;;4999705;28;20042;-78
2022/10/25 07:40:28;;;;;;;10.27;4.60;;;11.20;99.90;;;;;;4998974;28;20101;-77
2022/10/25 07:42:54;;;;;;;18.58;5.90;;;11.20;99.90;;;;;;4999283;28;20133;-78
2022/10/25 07:45:19;;;;;;;6.03;3.38;;;11.30;99.90;;;;;;4995443;28;20027;-77
2022/10/25 07:47:45;;;;;;;7.05;4.38;;;11.40;99.90;;;;;;4999524;28;20041;-77
2022/10/25 07:50:11;;;;;;;8.10;3.22;;;;;;;;;;4999815;28;20093;-77
2022/10/25 07:52:37;;;;;;;14.02;3.97;;;11.60;99.90;;;;;;5000438;28;20038;-77
2022/10/25 07:55:03;;;;;;;6.72;3.25;;;11.80;99.90;;;;;;5002422;28;20018;-77
2022/10/25 07:57:28;;;;;;;4.75;3.28;;;11.90;99.90;;;;;;5001477;28;20054;-78
2022/10/25 07:59:54;;;;;;;6.38;3.20;;;12.00;99.90;;;;;;5003586;28;20031;-77
2022/10/25 08:02:19;;;;;;;5.32;3.15;;;12.00;99.90;;;;;;5003223;28;20442;-77
2022/10/25 08:04:45;;;;;;;7.93;4.00;;;12.10;99.90;;;;;;4997894;28;20046;-78
2022/10/25 08:07:11;;;;;;;7.80;3.95;;;12.20;99.90;;;;;;4988914;28;20111;-78
2022/10/25 08:09:36;;;;;;;5.45;3.33;;;12.20;99.90;;;;;;4995443;28;20037;-77
2022/10/25 08:12:02;;;;;;;4.53;3.15;;;12.30;99.90;;;;;;4997896;28;20126;-78
2022/10/25 08:14:28;;;;;;;3.75;2.53;;;12.40;99.90;;;;;;4998189;28;20026;-77
2022/10/25 08:16:53;;;;;;;4.43;2.90;;;12.40;99.90;;;;;;4983149;28;20027;-78
2022/10/25 08:19:19;;;;;;;5.38;2.95;;;;;;;;;;4998199;28;20054;-77
2022/10/25 08:21:45;;;;;;;6.38;2.63;;;12.40;99.90;;;;;;4983878;28;20332;-78
2022/10/25 08:24:11;;;;;;;7.60;3.38;;;12.30;99.90;;;;;;4983978;28;20034;-77
2022/10/25 08:26:36;;;;;;;2.95;2.42;;;12.30;99.90;;;;;;4983346;28;20015;-77
2022/10/25 08:29:02;;;;;;;4.35;3.00;;;12.20;99.90;;;;;;4982925;28;20027;-77
2022/10/25 08:31:28;;;;;;;3.70;1.95;;;;;;;;;;4996479;28;20034;-77
2022/10/25 08:33:54;;;;;;;5.90;2.72;;;12.20;99.90;;;;;;4998627;28;20038;-80
2022/10/25 08:36:24;;;;;;;3.97;2.38;;;12.10;99.90;;;;;;4999608;28;20022;-79
2022/10/25 08:38:50;;;;;;;7.15;2.60;;;;;;;;;;5006477;28;20029;-77
2022/10/25 08:41:43;;;;;;;3.10;2.60;;;11.90;99.90;;;;;;5002104;28;20066;-76
2022/10/25 08:44:27;;;;;;;5.15;2.50;;;11.80;99.90;;;;;;5004957;28;20222;-77
2022/10/25 08:47:06;;;;;;;8.98;2.50;;;11.70;99.90;;;;;;5001957;28;20015;-78
2022/10/25 08:49:37;;;;;;;2.88;2.08;;;11.70;99.90;;;;;;5001536;28;20037;-76
2022/10/25 08:52:05;;;;;;;5.63;2.17;;;11.80;99.90;;;;;;5001999;28;20030;-77
2022/10/25 08:54:42;;;;;;;3.35;2.10;;;11.80;99.90;;;;;;4981936;28;20026;-77
2022/10/25 08:57:29;;;;;;;7.25;3.45;;;11.80;99.90;;;;;;4980883;28;20029;-76
2022/10/25 09:00:06;;;;;;;6.50;2.08;;;11.90;99.90;;;;;;4981191;28;20042;-76
2022/10/25 09:02:44;;;;;;;4.10;2.38;;;11.90;99.90;;;;;;4983943;28;20241;-76
2022/10/25 09:05:36;;;;;;;5.28;2.33;;;12.00;99.90;;;;;;5000435;28;20022;-77
2022/10/25 09:08:19;;;;;;;2.88;1.92;;;12.00;99.90;;;;;;4995433;28;20064;-79
2022/10/25 09:11:01;;;;;;;2.70;1.70;;;12.10;99.90;;;;;;4983928;28;20023;-77
2022/10/25 09:13:39;;;;;;;3.25;1.60;;;12.20;99.90;;;;;;4981246;28;20043;-77
2022/10/25 09:16:30;;;;;;;2.75;2.30;;;12.30;99.90;;;;;;4982516;28;20023;-77
2022/10/25 09:18:56;;;;;;;3.10;2.05;;;12.30;99.90;;;;;;4992453;28;20084;-76
2022/10/25 09:21:39;;;;;;;2.25;1.95;;;12.40;99.90;;;;;;4985519;28;20054;-77
2022/10/25 09:24:28;;;;;;;4.60;2.78;;;12.50;99.90;;;;;;4984044;28;20050;-79
2022/10/25 09:27:10;;;;;;;7.65;1.45;;;12.50;99.90;;;;;;4985603;28;20026;-76
2022/10/25 09:29:57;;;;;;;2.92;1.80;;;12.70;99.90;;;;;;4984771;28;20346;-76
2022/10/25 09:32:35;;;;;;;2.25;1.40;;;12.80;99.90;;;;;;4986129;28;20339;-78
2022/10/25 09:35:03;;;;;;;4.72;2.15;;;12.80;99.90;;;;;;4990903;28;20061;-77
2022/10/25 09:38:04;;;;;;;3.13;1.98;;;12.90;99.90;;;;;;4981003;28;20090;-77
2022/10/25 09:40:40;;;;;;;2.92;2.03;;;13.00;99.90;;;;;;4984292;28;20030;-77
2022/10/25 09:43:15;;;;;;;1.35;1.23;;;13.00;99.90;;;;;;4994852;28;20033;-78
2022/10/25 09:45:58;;;;;;;2.00;1.50;;;13.10;99.90;;;;;;5015376;28;20084;-77
2022/10/25 09:48:36;;;;;;;2.95;1.15;;;10.40;99.90;;;;;;4982289;28;20066;-77
2022/10/25 09:51:04;;;;;;;2.85;1.70;;;13.30;99.90;;;;;;4985050;28;20071;-77
2022/10/25 09:53:32;;;;;;;2.33;1.75;;;13.30;99.90;;;;;;4984984;28;20046;-76
2022/10/25 09:56:00;;;;;;;1.67;1.52;;;13.40;99.90;;;;;;4979081;28;20026;-75
2022/10/25 09:58:29;;;;;;;1.30;1.20;;;13.50;99.90;;;;;;4979511;28;20027;-75
2022/10/25 10:00:58;;;;;;;3.35;1.33;;;13.60;99.90;;;;;;4978987;28;20015;-75
2022/10/25 10:03:29;;;;;;;1.88;1.73;;;13.60;99.90;;;;;;4979885;28;20055;-76
2022/10/25 10:05:59;;;;;;;2.00;1.70;;;13.70;99.90;;;;;;4979311;28;20065;-76
2022/10/25 10:08:26;;;;;;;1.10;1.00;;;13.70;99.90;;;;;;4980591;28;20029;-77
2022/10/25 10:10:53;;;;;;;3.42;1.25;;;13.70;99.90;;;;;;4979537;28;20018;-76
2022/10/25 10:13:46;;;;;;;2.60;1.70;;;13.80;99.90;;;;;;4979930;28;20027;-77
2022/10/25 10:16:37;;;;;;;2.88;1.15;;;13.90;99.90;;;;;;4979514;28;20026;-75
2022/10/25 10:19:24;;;;;;;2.63;1.27;;;14.00;99.90;;;;;;4976680;28;20023;-74
2022/10/25 10:21:53;;;;;;;7.65;2.33;;;14.10;99.90;;;;;;4977498;28;20078;-75
2022/10/25 10:24:27;;;;;;;2.30;1.45;;;14.10;99.90;;;;;;4974672;28;20578;-76
2022/10/25 10:27:01;;;;;;;2.85;1.23;;;14.20;99.90;;;;;;4977159;28;20319;-76
2022/10/25 10:29:29;;;;;;;1.25;1.10;;;14.20;99.90;;;;;;4978805;28;20030;-76
2022/10/25 10:32:23;;;;;;;1.38;1.27;;;14.30;99.90;;;;;;4979119;28;20057;-76
2022/10/25 10:34:55;;;;;;;7.60;1.67;;;14.40;99.90;;;;;;4979132;28;20127;-77
2022/10/25 10:37:26;;;;;;;2.15;1.25;;;14.50;99.90;;;;;;4994087;28;20058;-77
2022/10/25 10:39:58;;;;;;;7.20;1.80;;;14.50;99.90;;;;;;4974086;28;20390;-76
2022/10/25 10:42:31;;;;;;;7.97;1.75;;;14.60;99.90;;;;;;4979887;28;20374;-77
2022/10/25 10:45:07;;;;;;;4.10;1.35;;;14.70;99.90;;;;;;4977672;28;20042;-76
2022/10/25 10:47:54;;;;;;;2.10;1.45;;;14.80;99.90;;;;;;4977514;28;20187;-76
2022/10/25 10:50:23;;;;;;;4.13;1.50;;;14.90;99.90;;;;;;4976255;28;20054;-76
2022/10/25 10:52:52;;;;;;;4.03;2.20;;;15.00;99.90;;;;;;4977307;28;20124;-76
2022/10/25 10:55:39;;;;;;;2.27;2.00;;;15.10;99.90;;;;;;4976889;28;20258;-76
2022/10/25 10:58:06;;;;;;;6.53;2.90;;;15.10;99.90;;;;;;4966724;28;20278;-76
2022/10/25 11:00:33;;;;;;;2.03;1.63;;;15.30;99.90;;;;;;4977060;28;20031;-76
2022/10/25 11:02:59;;;;;;;4.32;1.20;;;15.30;99.90;;;;;;4976424;28;20616;-76
2022/10/25 11:05:30;;;;;;;5.07;1.75;;;15.60;99.90;;;;;;4977190;28;20166;-76
2022/10/25 11:08:02;;;;;;;5.22;1.77;;;15.60;99.90;;;;;;4977303;28;20069;-76
2022/10/25 11:10:33;;;;;;;3.95;1.17;;;15.70;99.90;;;;;;4977236;28;20034;-76
2022/10/25 11:13:09;;;;;;;4.40;1.20;;;15.80;99.90;;;;;;4976667;28;20039;-76
2022/10/25 11:16:02;;;;;;;3.10;1.27;;;16.00;99.90;;;;;;4978343;28;20236;-76
2022/10/25 11:19:05;;;;;;;1.25;1.15;;;16.10;99.90;;;;;;4978365;28;20023;-76
2022/10/25 11:21:45;;;;;;;0.93;0.93;;;16.20;99.90;;;;;;4976843;28;20074;-76
2022/10/25 11:24:35;;;;;;;2.30;1.33;;;16.30;99.90;;;;;;4978424;28;20042;-76
2022/10/25 11:27:24;;;;;;;2.47;1.25;;;16.40;99.90;;;;;;4993969;28;20326;-76
2022/10/25 11:30:13;;;;;;;1.15;1.08;;;16.50;99.90;;;;;;4998242;28;20238;-76
2022/10/25 11:33:03;;;;;;;1.33;1.00;;;16.50;99.90;;;;;;4999398;28;20042;-76
2022/10/25 11:35:47;;;;;;;0.90;0.60;;;16.60;99.90;;;;;;5001689;28;20349;-76
2022/10/25 11:38:22;;;;;;;0.95;0.80;;;16.70;99.90;;;;;;5000174;28;20030;-76
2022/10/25 11:41:16;;;;;;;8.48;1.33;;;16.70;99.90;;;;;;4999505;28;20308;-76
2022/10/25 11:43:51;;;;;;;1.48;1.20;;;16.80;99.90;;;;;;5000055;28;20033;-76
2022/10/25 11:46:47;;;;;;;2.90;0.73;;;16.90;99.90;;;;;;5002031;28;20096;-76
2022/10/25 11:49:33;;;;;;;1.88;0.65;;;17.00;99.90;;;;;;5001189;28;20049;-76
2022/10/25 11:52:21;;;;;;;0.80;0.70;;;17.10;99.90;;;;;;5000207;28;20218;-76
2022/10/25 11:54:47;;;;;;;2.13;0.88;;;17.10;99.90;;;;;;4993933;28;20034;-77
2022/10/25 11:57:31;;;;;;;5.40;1.20;;;17.20;99.90;;;;;;5001345;28;20057;-76
2022/10/25 12:00:05;;;;;;;7.07;2.97;;;17.30;99.90;;;;;;4999707;28;20045;-75
2022/10/25 12:02:55;;;;;;;2.35;1.52;;;17.30;99.90;;;;;;5000552;28;20080;-76
2022/10/25 12:05:46;;;;;;;1.48;0.80;;;17.30;99.90;;;;;;4992854;28;20027;-77
2022/10/25 12:08:56;;;;;;;1.50;0.70;;;17.40;99.90;;;;;;4999511;28;20207;-77
2022/10/25 12:11:29;;;;;;;2.33;1.40;;;17.40;99.90;;;;;;4999454;28;20034;-76
2022/10/25 12:13:59;;;;;;;2.88;1.30;;;17.50;99.90;;;;;;4999810;28;20331;-76
2022/10/25 12:16:28;;;;;;;2.17;0.95;;;17.50;99.90;;;;;;5000523;28;20166;-76
2022/10/25 12:19:15;;;;;;;0.82;0.82;;;17.60;99.90;;;;;;5000535;28;20096;-75
2022/10/25 12:21:59;;;;;;;0.60;0.60;;;17.70;99.90;;;;;;4997584;28;20116;-76
2022/10/25 12:24:33;;;;;;;0.68;0.68;;;18.10;99.90;;;;;;5000328;28;20034;-76
2022/10/25 12:26:59;;;;;;;2.67;0.85;;;18.60;99.90;;;;;;4998053;28;20077;-76
2022/10/25 12:29:55;;;;;;;0.50;0.50;;;19.80;99.90;;;;;;4980418;28;20015;-76
2022/10/25 12:32:40;;;;;;;1.95;0.95;;;21.40;99.90;;;;;;4958124;28;20051;-76
2022/10/25 12:35:18;;;;;;;0.80;0.60;;;23.00;99.90;;;;;;4980693;28;20030;-76
2022/10/25 12:37:50;;;;;;;2.75;0.63;;;23.90;99.90;;;;;;4979780;28;20027;-76
2022/10/25 12:40:19;;;;;;;0.68;0.68;;;24.10;96.50;;;;;;4979761;28;20106;-76
2022/10/25 12:43:20;;;;;;;0.63;0.63;;;24.90;92.60;;;;;;4980051;28;20511;-76
2022/10/25 12:46:14;;;;;;;0.50;0.30;;;25.60;89.50;;;;;;4972669;28;20046;-77
2022/10/25 12:49:03;;;;;;;1.27;0.47;;;26.40;80.80;;;;;;4980199;28;20030;-79
2022/10/25 12:51:29;;;;;;;1.08;1.08;;;27.20;72.50;;;;;;4979538;28;20095;-77
2022/10/25 12:54:22;;;;;;;1.08;0.50;;;26.80;69.80;;;;;;4979121;28;20226;-77
2022/10/25 12:57:06;;;;;;;0.60;0.60;;;26.30;69.60;;;;;;4994712;28;20247;-78
2022/10/25 13:00:23;;;;;;;0.52;0.30;;;26.20;69.00;;;;;;4979858;28;20033;-78
2022/10/25 13:02:57;;;;;;;1.60;0.80;;;26.90;68.30;;;;;;4934712;28;20046;-76
2022/10/25 13:05:42;;;;;;;3.28;0.75;;;26.70;68.50;;;;;;4967090;28;20069;-76
2022/10/25 13:08:09;;;;;;;0.70;0.70;;;26.60;68.10;;;;;;4965606;28;20463;-76
2022/10/25 13:10:42;;;;;;;0.47;0.47;;;27.10;67.70;;;;;;4967270;28;20114;-76
2022/10/25 13:13:47;;;;;;;1.20;0.65;;;27.70;66.00;;;;;;4965795;28;20031;-76
2022/10/25 13:16:26;;;;;;;4.30;0.40;;;28.20;61.70;;;;;;4955129;28;20027;-76
2022/10/25 13:19:24;;;;;;;2.50;0.90;;;28.10;60.50;;;;;;4967216;28;20400;-76
2022/10/25 13:21:52;;;;;;;0.40;0.40;;;28.10;61.50;;;;;;4966831;28;20535;-76
2022/10/25 13:24:38;;;;;;;5.05;0.52;;;28.00;62.20;;;;;;4966957;28;20073;-76